sensor_id;sensor_type;location;lat;lon;timestamp;temperature;humidity
63313;DHT22;49442;45.640;13.812;2023-04-01T00:01:46;9.60;99.90
63313;DHT22;49442;45.640;13.812;2023-04-01T00:04:12;9.60;99.90
63313;DHT22;49442;45.640;13.812;2023-04-01T00:06:38;9.60;99.90
63313;DHT22;49442;45.640;13.812;2023-04-01T00:09:04;9.60;99.90
63313;DHT22;49442;45.640;13.812;2023-04-01T00:11:30;9.60;99.90
63313;DHT22;49442;45.640;13.812;2023-04-01T00:13:55;9.60;99.90
63313;DHT22;49442;45.640;13.812;2023-04-01T00:16:21;9.60;99.90
63313;DHT22;49442;45.640;13.812;2023-04-01T00:18:48;9.60;99.90
63313;DHT22;49442;45.640;13.812;2023-04-01T00:21:14;9.60;99.90
63313;DHT22;49442;45.640;13.812;2023-04-01T00:23:39;9.50;99.90
63313;DHT22;49442;45.640;13.812;2023-04-01T00:26:05;9.50;99.90
63313;DHT22;49442;45.640;13.812;2023-04-01T00:28:31;9.50;99.90
63313;DHT22;49442;45.640;13.812;2023-04-01T00:31:05;9.50;99.90
63313;DHT22;49442;45.640;13.812;2023-04-01T00:33:31;9.40;99.90
63313;DHT22;49442;45.640;13.812;2023-04-01T00:36:06;9.40;99.90
63313;DHT22;49442;45.640;13.812;2023-04-01T00:38:32;9.40;99.90
63313;DHT22;49442;45.640;13.812;2023-04-01T00:40:58;9.30;99.90
63313;DHT22;49442;45.640;13.812;2023-04-01T00:43:25;9.30;99.90
63313;DHT22;49442;45.640;13.812;2023-04-01T00:45:51;9.30;99.90
63313;DHT22;49442;45.640;13.812;2023-04-01T00:48:23;9.30;99.90
63313;DHT22;49442;45.640;13.812;2023-04-01T00:51:01;9.30;99.90
63313;DHT22;49442;45.640;13.812;2023-04-01T00:53:30;9.20;99.90
63313;DHT22;49442;45.640;13.812;2023-04-01T00:56:11;9.20;99.90
63313;DHT22;49442;45.640;13.812;2023-04-01T00:58:39;9.20;99.90
63313;DHT22;49442;45.640;13.812;2023-04-01T01:01:06;9.30;99.90
63313;DHT22;49442;45.640;13.812;2023-04-01T01:03:33;9.30;99.90
63313;DHT22;49442;45.640;13.812;2023-04-01T01:09:20;9.30;99.90
63313;DHT22;49442;45.640;13.812;2023-04-01T01:12:18;9.40;99.90
63313;DHT22;49442;45.640;13.812;2023-04-01T01:34:07;9.50;99.90
63313;DHT22;49442;45.640;13.812;2023-04-01T01:36:37;9.50;99.90
63313;DHT22;49442;45.640;13.812;2023-04-01T01:39:05;9.50;99.90
63313;DHT22;49442;45.640;13.812;2023-04-01T01:41:34;9.50;99.90
63313;DHT22;49442;45.640;13.812;2023-04-01T01:44:03;9.60;99.90
63313;DHT22;49442;45.640;13.812;2023-04-01T01:46:31;9.50;99.90
63313;DHT22;49442;45.640;13.812;2023-04-01T01:48:58;9.60;99.90
63313;DHT22;49442;45.640;13.812;2023-04-01T01:51:26;9.60;99.90
63313;DHT22;49442;45.640;13.812;2023-04-01T01:53:53;9.60;99.90
63313;DHT22;49442;45.640;13.812;2023-04-01T01:56:21;9.70;99.90
63313;DHT22;49442;45.640;13.812;2023-04-01T01:58:50;9.70;99.90
63313;DHT22;49442;45.640;13.812;2023-04-01T02:01:20;9.70;99.90
63313;DHT22;49442;45.640;13.812;2023-04-01T02:03:48;9.60;99.90
63313;DHT22;49442;45.640;13.812;2023-04-01T02:06:20;9.60;99.90
63313;DHT22;49442;45.640;13.812;2023-04-01T02:08:54;9.70;99.90
63313;DHT22;49442;45.640;13.812;2023-04-01T02:11:27;9.70;99.90
63313;DHT22;49442;45.640;13.812;2023-04-01T02:14:01;9.70;99.90
63313;DHT22;49442;45.640;13.812;2023-04-01T02:16:53;9.70;99.90
63313;DHT22;49442;45.640;13.812;2023-04-01T02:19:23;9.80;99.90
63313;DHT22;49442;45.640;13.812;2023-04-01T02:21:56;9.80;99.90
63313;DHT22;49442;45.640;13.812;2023-04-01T02:24:25;9.80;99.90
63313;DHT22;49442;45.640;13.812;2023-04-01T02:26:52;9.80;99.90
63313;DHT22;49442;45.640;13.812;2023-04-01T02:29:20;9.80;99.90
63313;DHT22;49442;45.640;13.812;2023-04-01T02:31:47;9.80;99.90
63313;DHT22;49442;45.640;13.812;2023-04-01T02:34:14;9.90;99.90
63313;DHT22;49442;45.640;13.812;2023-04-01T02:36:41;9.90;99.90
63313;DHT22;49442;45.640;13.812;2023-04-01T02:39:07;9.90;99.90
63313;DHT22;49442;45.640;13.812;2023-04-01T02:41:39;10.00;99.90
63313;DHT22;49442;45.640;13.812;2023-04-01T02:44:06;10.00;99.90
63313;DHT22;49442;45.640;13.812;2023-04-01T02:46:32;10.00;99.90
63313;DHT22;49442;45.640;13.812;2023-04-01T02:48:58;10.00;99.90
63313;DHT22;49442;45.640;13.812;2023-04-01T02:51:26;10.10;99.90
63313;DHT22;49442;45.640;13.812;2023-04-01T02:53:51;10.10;99.90
63313;DHT22;49442;45.640;13.812;2023-04-01T02:56:17;10.20;99.90
63313;DHT22;49442;45.640;13.812;2023-04-01T02:58:45;10.10;99.90
63313;DHT22;49442;45.640;13.812;2023-04-01T03:01:11;10.10;99.90
63313;DHT22;49442;45.640;13.812;2023-04-01T03:03:37;10.20;99.90
63313;DHT22;49442;45.640;13.812;2023-04-01T03:06:09;10.20;99.90
63313;DHT22;49442;45.640;13.812;2023-04-01T03:08:35;10.20;99.90
63313;DHT22;49442;45.640;13.812;2023-04-01T03:11:01;10.20;99.90
63313;DHT22;49442;45.640;13.812;2023-04-01T03:13:27;10.20;99.90
63313;DHT22;49442;45.640;13.812;2023-04-01T03:15:53;10.10;99.90
63313;DHT22;49442;45.640;13.812;2023-04-01T03:18:18;10.20;99.90
63313;DHT22;49442;45.640;13.812;2023-04-01T03:20:44;10.20;99.90
63313;DHT22;49442;45.640;13.812;2023-04-01T03:23:10;10.20;99.90
63313;DHT22;49442;45.640;13.812;2023-04-01T03:25:36;10.20;99.90
63313;DHT22;49442;45.640;13.812;2023-04-01T03:28:02;10.20;99.90
63313;DHT22;49442;45.640;13.812;2023-04-01T03:30:28;10.20;99.90
63313;DHT22;49442;45.640;13.812;2023-04-01T03:32:57;10.20;99.90
63313;DHT22;49442;45.640;13.812;2023-04-01T03:35:23;10.20;99.90
63313;DHT22;49442;45.640;13.812;2023-04-01T03:37:50;10.20;99.90
63313;DHT22;49442;45.640;13.812;2023-04-01T03:40:16;10.20;99.90
63313;DHT22;49442;45.640;13.812;2023-04-01T03:42:42;10.20;99.90
63313;DHT22;49442;45.640;13.812;2023-04-01T03:45:08;10.10;99.90
63313;DHT22;49442;45.640;13.812;2023-04-01T03:47:34;10.20;99.90
63313;DHT22;49442;45.640;13.812;2023-04-01T03:50:00;10.20;99.90
63313;DHT22;49442;45.640;13.812;2023-04-01T03:52:26;10.20;99.90
63313;DHT22;49442;45.640;13.812;2023-04-01T03:54:52;10.20;99.90
63313;DHT22;49442;45.640;13.812;2023-04-01T03:57:18;10.20;99.90
63313;DHT22;49442;45.640;13.812;2023-04-01T03:59:43;10.20;99.90
63313;DHT22;49442;45.640;13.812;2023-04-01T04:02:09;10.10;99.90
63313;DHT22;49442;45.640;13.812;2023-04-01T04:04:35;10.20;99.90
63313;DHT22;49442;45.640;13.812;2023-04-01T04:07:01;10.10;99.90
63313;DHT22;49442;45.640;13.812;2023-04-01T04:09:26;10.10;99.90
63313;DHT22;49442;45.640;13.812;2023-04-01T04:11:52;10.10;99.90
63313;DHT22;49442;45.640;13.812;2023-04-01T04:14:18;9.90;99.90
63313;DHT22;49442;45.640;13.812;2023-04-01T04:16:43;9.80;99.90
63313;DHT22;49442;45.640;13.812;2023-04-01T04:19:09;9.70;99.90
63313;DHT22;49442;45.640;13.812;2023-04-01T04:21:35;9.60;99.90
63313;DHT22;49442;45.640;13.812;2023-04-01T04:24:01;9.50;99.90
63313;DHT22;49442;45.640;13.812;2023-04-01T04:26:26;9.50;99.90
63313;DHT22;49442;45.640;13.812;2023-04-01T04:28:53;9.40;99.90
63313;DHT22;49442;45.640;13.812;2023-04-01T04:31:23;9.40;99.90
63313;DHT22;49442;45.640;13.812;2023-04-01T04:33:49;9.30;99.90
63313;DHT22;49442;45.640;13.812;2023-04-01T04:36:15;9.20;99.90
63313;DHT22;49442;45.640;13.812;2023-04-01T04:38:41;9.20;99.90
63313;DHT22;49442;45.640;13.812;2023-04-01T04:41:14;9.30;99.90
63313;DHT22;49442;45.640;13.812;2023-04-01T04:43:41;9.30;99.90
63313;DHT22;49442;45.640;13.812;2023-04-01T04:46:08;9.20;99.90
63313;DHT22;49442;45.640;13.812;2023-04-01T04:48:34;9.10;99.90
63313;DHT22;49442;45.640;13.812;2023-04-01T04:51:00;9.00;99.90
63313;DHT22;49442;45.640;13.812;2023-04-01T04:53:26;8.90;99.90
63313;DHT22;49442;45.640;13.812;2023-04-01T04:55:52;8.90;99.90
63313;DHT22;49442;45.640;13.812;2023-04-01T04:58:18;9.00;99.90
63313;DHT22;49442;45.640;13.812;2023-04-01T05:00:45;9.20;99.90
63313;DHT22;49442;45.640;13.812;2023-04-01T05:03:11;9.20;99.90
63313;DHT22;49442;45.640;13.812;2023-04-01T05:05:38;9.30;99.90
63313;DHT22;49442;45.640;13.812;2023-04-01T05:08:04;9.10;99.90
63313;DHT22;49442;45.640;13.812;2023-04-01T05:10:30;9.00;99.90
63313;DHT22;49442;45.640;13.812;2023-04-01T05:12:57;8.90;99.90
63313;DHT22;49442;45.640;13.812;2023-04-01T05:15:23;8.70;99.90
63313;DHT22;49442;45.640;13.812;2023-04-01T05:17:49;8.70;99.90
63313;DHT22;49442;45.640;13.812;2023-04-01T05:20:15;8.70;99.90
63313;DHT22;49442;45.640;13.812;2023-04-01T05:22:42;8.70;99.90
63313;DHT22;49442;45.640;13.812;2023-04-01T05:25:08;8.70;99.90
63313;DHT22;49442;45.640;13.812;2023-04-01T05:27:34;8.70;99.90
63313;DHT22;49442;45.640;13.812;2023-04-01T05:30:00;8.60;99.90
63313;DHT22;49442;45.640;13.812;2023-04-01T05:32:26;8.60;99.90
63313;DHT22;49442;45.640;13.812;2023-04-01T05:34:52;8.60;99.90
63313;DHT22;49442;45.640;13.812;2023-04-01T05:37:19;8.60;99.90
63313;DHT22;49442;45.640;13.812;2023-04-01T05:39:44;8.60;99.90
63313;DHT22;49442;45.640;13.812;2023-04-01T05:42:10;8.60;99.90
63313;DHT22;49442;45.640;13.812;2023-04-01T05:44:36;8.70;99.90
63313;DHT22;49442;45.640;13.812;2023-04-01T05:47:03;8.80;99.90
63313;DHT22;49442;45.640;13.812;2023-04-01T05:49:29;8.90;99.90
63313;DHT22;49442;45.640;13.812;2023-04-01T05:51:55;9.00;99.90
63313;DHT22;49442;45.640;13.812;2023-04-01T05:54:21;9.00;99.90
63313;DHT22;49442;45.640;13.812;2023-04-01T05:56:47;9.10;99.90
63313;DHT22;49442;45.640;13.812;2023-04-01T05:59:13;9.20;99.90
63313;DHT22;49442;45.640;13.812;2023-04-01T06:01:39;9.30;99.90
63313;DHT22;49442;45.640;13.812;2023-04-01T06:04:05;9.40;99.90
63313;DHT22;49442;45.640;13.812;2023-04-01T06:06:31;9.50;99.90
63313;DHT22;49442;45.640;13.812;2023-04-01T06:09:06;9.50;99.90
63313;DHT22;49442;45.640;13.812;2023-04-01T06:12:03;9.60;99.90
63313;DHT22;49442;45.640;13.812;2023-04-01T06:14:57;9.70;99.90
63313;DHT22;49442;45.640;13.812;2023-04-01T06:23:18;9.90;99.90
63313;DHT22;49442;45.640;13.812;2023-04-01T06:28:41;10.00;99.90
63313;DHT22;49442;45.640;13.812;2023-04-01T06:48:10;10.50;99.90
63313;DHT22;49442;45.640;13.812;2023-04-01T06:50:53;10.60;99.90
63313;DHT22;49442;45.640;13.812;2023-04-01T06:55:59;10.80;99.90
63313;DHT22;49442;45.640;13.812;2023-04-01T06:58:43;10.90;99.90
63313;DHT22;49442;45.640;13.812;2023-04-01T07:01:18;10.90;99.90
63313;DHT22;49442;45.640;13.812;2023-04-01T07:04:09;11.00;99.90
63313;DHT22;49442;45.640;13.812;2023-04-01T07:06:44;11.00;99.90
63313;DHT22;49442;45.640;13.812;2023-04-01T07:09:18;11.00;99.90
63313;DHT22;49442;45.640;13.812;2023-04-01T07:11:45;11.00;99.90
63313;DHT22;49442;45.640;13.812;2023-04-01T07:14:34;11.10;99.90
63313;DHT22;49442;45.640;13.812;2023-04-01T07:17:15;11.30;99.90
63313;DHT22;49442;45.640;13.812;2023-04-01T07:19:54;11.50;99.90
63313;DHT22;49442;45.640;13.812;2023-04-01T07:24:59;11.80;99.90
63313;DHT22;49442;45.640;13.812;2023-04-01T07:27:26;11.90;99.90
63313;DHT22;49442;45.640;13.812;2023-04-01T07:29:55;12.00;99.90
63313;DHT22;49442;45.640;13.812;2023-04-01T07:32:47;12.10;99.90
63313;DHT22;49442;45.640;13.812;2023-04-01T07:35:38;12.20;99.90
63313;DHT22;49442;45.640;13.812;2023-04-01T07:38:11;12.40;99.90
63313;DHT22;49442;45.640;13.812;2023-04-01T07:44:12;12.70;99.90
63313;DHT22;49442;45.640;13.812;2023-04-01T07:49:37;12.80;99.90
63313;DHT22;49442;45.640;13.812;2023-04-01T07:52:27;12.80;99.90
63313;DHT22;49442;45.640;13.812;2023-04-01T08:00:55;13.30;99.90
63313;DHT22;49442;45.640;13.812;2023-04-01T08:03:29;13.40;99.90
63313;DHT22;49442;45.640;13.812;2023-04-01T08:08:43;13.60;99.90
63313;DHT22;49442;45.640;13.812;2023-04-01T08:14:19;14.00;99.90
63313;DHT22;49442;45.640;13.812;2023-04-01T08:24:48;15.00;99.90
63313;DHT22;49442;45.640;13.812;2023-04-01T08:30:21;15.20;99.90
63313;DHT22;49442;45.640;13.812;2023-04-01T08:32:53;15.20;99.90
63313;DHT22;49442;45.640;13.812;2023-04-01T08:37:50;15.00;99.90
63313;DHT22;49442;45.640;13.812;2023-04-01T08:40:33;15.00;99.90
63313;DHT22;49442;45.640;13.812;2023-04-01T08:48:36;14.90;99.90
63313;DHT22;49442;45.640;13.812;2023-04-01T08:54:42;14.80;99.90
63313;DHT22;49442;45.640;13.812;2023-04-01T08:56:50;14.80;99.90
63313;DHT22;49442;45.640;13.812;2023-04-01T09:18:25;15.00;99.90
63313;DHT22;49442;45.640;13.812;2023-04-01T09:32:37;15.70;99.90
63313;DHT22;49442;45.640;13.812;2023-04-01T09:37:54;15.90;99.90
63313;DHT22;49442;45.640;13.812;2023-04-01T09:40:33;16.00;99.90
63313;DHT22;49442;45.640;13.812;2023-04-01T09:48:51;16.10;99.90
63313;DHT22;49442;45.640;13.812;2023-04-01T10:00:15;16.30;99.90
63313;DHT22;49442;45.640;13.812;2023-04-01T10:05:30;16.40;99.90
63313;DHT22;49442;45.640;13.812;2023-04-01T10:21:56;16.50;99.90
63313;DHT22;49442;45.640;13.812;2023-04-01T10:27:16;16.40;99.90
63313;DHT22;49442;45.640;13.812;2023-04-01T10:30:17;16.50;99.90
63313;DHT22;49442;45.640;13.812;2023-04-01T10:36:17;16.20;99.90
63313;DHT22;49442;45.640;13.812;2023-04-01T11:19:29;16.80;99.90
63313;DHT22;49442;45.640;13.812;2023-04-01T11:24:34;16.60;99.90
63313;DHT22;49442;45.640;13.812;2023-04-01T11:32:43;16.80;99.90
63313;DHT22;49442;45.640;13.812;2023-04-01T11:43:45;17.20;99.90
63313;DHT22;49442;45.640;13.812;2023-04-01T12:14:33;17.80;99.90
63313;DHT22;49442;45.640;13.812;2023-04-01T12:22:59;17.70;99.90
63313;DHT22;49442;45.640;13.812;2023-04-01T12:28:41;17.00;99.90
63313;DHT22;49442;45.640;13.812;2023-04-01T12:34:39;17.70;99.90
63313;DHT22;49442;45.640;13.812;2023-04-01T12:45:44;18.10;99.90
63313;DHT22;49442;45.640;13.812;2023-04-01T12:51:24;18.10;99.90
63313;DHT22;49442;45.640;13.812;2023-04-01T12:54:11;18.20;99.90
63313;DHT22;49442;45.640;13.812;2023-04-01T13:00:03;18.30;99.90
63313;DHT22;49442;45.640;13.812;2023-04-01T13:17:20;18.40;99.90
63313;DHT22;49442;45.640;13.812;2023-04-01T13:22:29;18.30;99.90
63313;DHT22;49442;45.640;13.812;2023-04-01T13:27:38;17.80;99.90
63313;DHT22;49442;45.640;13.812;2023-04-01T13:30:39;17.90;99.90
63313;DHT22;49442;45.640;13.812;2023-04-01T13:36:14;17.70;99.90
63313;DHT22;49442;45.640;13.812;2023-04-01T13:44:02;17.20;99.90
63313;DHT22;49442;45.640;13.812;2023-04-01T14:03:25;17.20;98.80
63313;DHT22;49442;45.640;13.812;2023-04-01T14:06:02;17.20;97.90
63313;DHT22;49442;45.640;13.812;2023-04-01T14:11:15;16.50;98.40
63313;DHT22;49442;45.640;13.812;2023-04-01T14:14:13;16.70;98.80
63313;DHT22;49442;45.640;13.812;2023-04-01T14:17:02;16.70;99.50
63313;DHT22;49442;45.640;13.812;2023-04-01T14:25:52;16.90;99.20
63313;DHT22;49442;45.640;13.812;2023-04-01T14:41:07;16.90;99.90
63313;DHT22;49442;45.640;13.812;2023-04-01T14:46:46;17.00;99.80
63313;DHT22;49442;45.640;13.812;2023-04-01T14:54:52;16.70;99.80
63313;DHT22;49442;45.640;13.812;2023-04-01T14:57:28;16.50;99.70
63313;DHT22;49442;45.640;13.812;2023-04-01T15:00:15;16.50;99.90
63313;DHT22;49442;45.640;13.812;2023-04-01T15:02:56;16.30;99.90
63313;DHT22;49442;45.640;13.812;2023-04-01T15:08:15;16.50;99.90
63313;DHT22;49442;45.640;13.812;2023-04-01T15:25:19;16.30;99.90
63313;DHT22;49442;45.640;13.812;2023-04-01T15:28:26;16.40;99.90
63313;DHT22;49442;45.640;13.812;2023-04-01T15:42:43;16.20;99.90
63313;DHT22;49442;45.640;13.812;2023-04-01T15:45:31;16.20;99.90
63313;DHT22;49442;45.640;13.812;2023-04-01T16:02:34;15.90;99.90
63313;DHT22;49442;45.640;13.812;2023-04-01T16:08:05;16.10;99.90
63313;DHT22;49442;45.640;13.812;2023-04-01T16:21:53;15.30;99.90
63313;DHT22;49442;45.640;13.812;2023-04-01T16:24:45;15.10;99.90
63313;DHT22;49442;45.640;13.812;2023-04-01T16:27:27;15.10;99.90
63313;DHT22;49442;45.640;13.812;2023-04-01T16:38:14;14.80;99.90
63313;DHT22;49442;45.640;13.812;2023-04-01T16:40:53;14.80;99.90
63313;DHT22;49442;45.640;13.812;2023-04-01T16:56:49;15.00;99.90
63313;DHT22;49442;45.640;13.812;2023-04-01T16:59:27;15.10;99.90
63313;DHT22;49442;45.640;13.812;2023-04-01T17:13:16;14.60;99.90
63313;DHT22;49442;45.640;13.812;2023-04-01T17:15:57;14.50;99.90
63313;DHT22;49442;45.640;13.812;2023-04-01T17:20:59;14.20;99.90
63313;DHT22;49442;45.640;13.812;2023-04-01T17:28:59;13.90;99.90
63313;DHT22;49442;45.640;13.812;2023-04-01T17:35:06;13.60;99.90
63313;DHT22;49442;45.640;13.812;2023-04-01T17:40:20;13.40;99.90
63313;DHT22;49442;45.640;13.812;2023-04-01T17:45:30;13.20;99.90
63313;DHT22;49442;45.640;13.812;2023-04-01T17:48:18;13.10;99.90
63313;DHT22;49442;45.640;13.812;2023-04-01T17:51:02;13.10;99.90
63313;DHT22;49442;45.640;13.812;2023-04-01T17:56:39;12.80;99.90
63313;DHT22;49442;45.640;13.812;2023-04-01T18:02:09;12.60;99.90
63313;DHT22;49442;45.640;13.812;2023-04-01T18:24:06;12.10;99.90
63313;DHT22;49442;45.640;13.812;2023-04-01T18:26:38;12.00;99.90
63313;DHT22;49442;45.640;13.812;2023-04-01T18:39:53;11.80;99.90
63313;DHT22;49442;45.640;13.812;2023-04-01T18:45:19;11.70;99.90
63313;DHT22;49442;45.640;13.812;2023-04-01T18:50:56;11.70;99.90
63313;DHT22;49442;45.640;13.812;2023-04-01T18:53:48;11.70;99.90
63313;DHT22;49442;45.640;13.812;2023-04-01T19:01:43;11.60;99.90
63313;DHT22;49442;45.640;13.812;2023-04-01T19:10:17;11.70;99.90
63313;DHT22;49442;45.640;13.812;2023-04-01T19:18:53;11.80;99.90
63313;DHT22;49442;45.640;13.812;2023-04-01T19:21:18;11.80;99.90
63313;DHT22;49442;45.640;13.812;2023-04-01T19:26:46;11.90;99.90
63313;DHT22;49442;45.640;13.812;2023-04-01T19:29:23;11.80;99.90
63313;DHT22;49442;45.640;13.812;2023-04-01T19:38:04;11.70;99.90
63313;DHT22;49442;45.640;13.812;2023-04-01T19:43:36;11.60;99.90
63313;DHT22;49442;45.640;13.812;2023-04-01T19:54:34;11.60;99.90
63313;DHT22;49442;45.640;13.812;2023-04-01T19:57:21;11.50;99.90
63313;DHT22;49442;45.640;13.812;2023-04-01T20:06:18;11.50;99.90
63313;DHT22;49442;45.640;13.812;2023-04-01T20:16:58;11.40;99.90
63313;DHT22;49442;45.640;13.812;2023-04-01T20:20:15;11.30;99.90
63313;DHT22;49442;45.640;13.812;2023-04-01T20:24:49;11.20;99.90
63313;DHT22;49442;45.640;13.812;2023-04-01T20:27:23;11.20;99.90
63313;DHT22;49442;45.640;13.812;2023-04-01T20:41:39;11.10;99.90
63313;DHT22;49442;45.640;13.812;2023-04-01T20:44:16;11.10;99.90
63313;DHT22;49442;45.640;13.812;2023-04-01T20:47:18;11.10;99.90
63313;DHT22;49442;45.640;13.812;2023-04-01T21:00:34;10.90;99.90
63313;DHT22;49442;45.640;13.812;2023-04-01T21:12:04;10.80;99.90
63313;DHT22;49442;45.640;13.812;2023-04-01T21:14:45;10.70;99.90
63313;DHT22;49442;45.640;13.812;2023-04-01T21:31:00;10.50;99.90
63313;DHT22;49442;45.640;13.812;2023-04-01T21:42:46;10.40;99.90
63313;DHT22;49442;45.640;13.812;2023-04-01T21:45:20;10.30;99.90
63313;DHT22;49442;45.640;13.812;2023-04-01T22:04:59;10.20;99.90
63313;DHT22;49442;45.640;13.812;2023-04-01T22:10:38;10.20;99.90
63313;DHT22;49442;45.640;13.812;2023-04-01T22:21:29;10.20;99.90
63313;DHT22;49442;45.640;13.812;2023-04-01T22:24:26;10.30;99.90
63313;DHT22;49442;45.640;13.812;2023-04-01T22:27:52;10.30;99.90
63313;DHT22;49442;45.640;13.812;2023-04-01T22:32:47;10.30;99.90
63313;DHT22;49442;45.640;13.812;2023-04-01T22:38:07;10.40;99.90
63313;DHT22;49442;45.640;13.812;2023-04-01T22:41:00;10.40;99.90
63313;DHT22;49442;45.640;13.812;2023-04-01T22:43:42;10.40;99.90
63313;DHT22;49442;45.640;13.812;2023-04-01T22:49:07;10.40;99.90
63313;DHT22;49442;45.640;13.812;2023-04-01T22:54:31;10.30;99.90
63313;DHT22;49442;45.640;13.812;2023-04-01T22:57:14;10.30;99.90
63313;DHT22;49442;45.640;13.812;2023-04-01T23:00:05;10.30;99.90
63313;DHT22;49442;45.640;13.812;2023-04-01T23:02:39;10.30;99.90
63313;DHT22;49442;45.640;13.812;2023-04-01T23:05:12;10.30;99.90
63313;DHT22;49442;45.640;13.812;2023-04-01T23:07:56;10.20;99.90
63313;DHT22;49442;45.640;13.812;2023-04-01T23:10:29;10.30;99.90
63313;DHT22;49442;45.640;13.812;2023-04-01T23:13:04;10.20;99.90
63313;DHT22;49442;45.640;13.812;2023-04-01T23:15:32;10.30;99.90
63313;DHT22;49442;45.640;13.812;2023-04-01T23:18:19;10.20;99.90
63313;DHT22;49442;45.640;13.812;2023-04-01T23:24:05;10.20;99.90
63313;DHT22;49442;45.640;13.812;2023-04-01T23:26:40;10.30;99.90
63313;DHT22;49442;45.640;13.812;2023-04-01T23:29:16;10.30;99.90
63313;DHT22;49442;45.640;13.812;2023-04-01T23:31:46;10.40;99.90
63313;DHT22;49442;45.640;13.812;2023-04-01T23:36:44;10.50;99.90
63313;DHT22;49442;45.640;13.812;2023-04-01T23:39:26;10.40;99.90
63313;DHT22;49442;45.640;13.812;2023-04-01T23:42:20;10.50;99.90
63313;DHT22;49442;45.640;13.812;2023-04-01T23:44:40;10.60;99.90
63313;DHT22;49442;45.640;13.812;2023-04-01T23:47:16;10.60;99.90
63313;DHT22;49442;45.640;13.812;2023-04-01T23:49:46;10.60;99.90
63313;DHT22;49442;45.640;13.812;2023-04-01T23:52:28;10.70;99.90
63313;DHT22;49442;45.640;13.812;2023-04-01T23:54:56;10.70;99.90
63313;DHT22;49442;45.640;13.812;2023-04-01T23:57:31;10.80;99.90
